createdAt,value
2022-08-08T00:02:30.552Z,16.70
2022-08-08T00:04:53.136Z,16.60
2022-08-08T00:07:35.097Z,16.60
2022-08-08T00:10:13.295Z,16.60
2022-08-08T00:12:56.188Z,16.60
2022-08-08T00:15:57.645Z,16.60
2022-08-08T00:18:26.838Z,16.60
2022-08-08T00:20:58.635Z,16.60
2022-08-08T00:23:42.798Z,16.50
2022-08-08T00:26:21.691Z,16.50
2022-08-08T00:29:02.705Z,16.50
2022-08-08T00:32:07.828Z,16.50
2022-08-08T00:35:20.512Z,16.50
2022-08-08T00:38:16.872Z,16.50
2022-08-08T00:41:54.752Z,16.40
2022-08-08T00:44:44.157Z,16.40
2022-08-08T00:48:06.618Z,16.30
2022-08-08T00:51:25.324Z,16.30
2022-08-08T00:54:50.095Z,16.30
2022-08-08T00:57:57.135Z,16.20
2022-08-08T01:00:33.361Z,16.20
2022-08-08T01:04:01.089Z,16.20
2022-08-08T01:07:23.974Z,16.20
2022-08-08T01:10:44.868Z,16.20
2022-08-08T01:13:52.899Z,16.10
2022-08-08T01:17:12.858Z,16.10
2022-08-08T01:20:06.094Z,16.10
2022-08-08T01:24:03.028Z,16.10
2022-08-08T01:26:39.373Z,16.10
2022-08-08T01:29:58.732Z,16.00
2022-08-08T01:33:16.169Z,16.00
2022-08-08T01:36:28.801Z,16.00
2022-08-08T01:39:27.770Z,16.00
2022-08-08T01:42:05.912Z,16.00
2022-08-08T01:44:56.789Z,16.00
2022-08-08T01:48:16.991Z,15.90
2022-08-08T01:50:48.893Z,16.00
2022-08-08T01:55:16.480Z,16.00
2022-08-08T01:56:46.812Z,15.90
2022-08-08T01:59:38.048Z,15.90
2022-08-08T02:02:41.858Z,15.90
2022-08-08T02:05:23.549Z,15.90
2022-08-08T02:08:05.170Z,15.80
2022-08-08T02:10:51.158Z,15.80
2022-08-08T02:13:53.623Z,15.80
2022-08-08T02:16:28.134Z,15.70
2022-08-08T02:19:26.990Z,15.80
2022-08-08T02:22:17.737Z,15.70
2022-08-08T02:24:54.766Z,15.70
2022-08-08T02:27:38.879Z,15.70
2022-08-08T02:30:20.897Z,15.60
2022-08-08T02:34:00.195Z,15.60
2022-08-08T02:36:44.538Z,15.60
2022-08-08T02:39:41.895Z,15.50
2022-08-08T02:44:35.273Z,15.50
2022-08-08T02:46:14.256Z,15.40
2022-08-08T02:49:47.501Z,15.50
2022-08-08T02:52:51.317Z,15.50
2022-08-08T02:56:04.600Z,15.40
2022-08-08T02:59:36.893Z,15.40
2022-08-08T03:03:01.454Z,15.30
2022-08-08T03:06:34.569Z,15.30
2022-08-08T03:09:54.192Z,15.20
2022-08-08T03:12:57.260Z,15.20
2022-08-08T03:16:34.319Z,15.10
2022-08-08T03:19:26.832Z,15.10
2022-08-08T03:21:59.653Z,15.10
2022-08-08T03:24:31.878Z,15.00
2022-08-08T03:27:12.203Z,15.00
2022-08-08T03:29:56.241Z,15.00
2022-08-08T03:32:47.545Z,15.00
2022-08-08T03:35:30.185Z,15.10
2022-08-08T03:38:56.911Z,15.10
2022-08-08T03:40:55.845Z,15.10
2022-08-08T03:43:25.562Z,15.00
2022-08-08T03:46:10.706Z,15.00
2022-08-08T03:49:56.677Z,15.00
2022-08-08T03:51:50.411Z,15.00
2022-08-08T03:54:41.651Z,15.00
2022-08-08T03:58:33.515Z,15.00
2022-08-08T04:00:17.374Z,15.00
2022-08-08T04:02:58.513Z,14.90
2022-08-08T04:05:30.044Z,14.90
2022-08-08T04:08:01.433Z,14.90
2022-08-08T04:10:32.763Z,15.00
2022-08-08T04:13:18.083Z,14.90
2022-08-08T04:15:54.748Z,14.90
2022-08-08T04:18:38.191Z,14.90
2022-08-08T04:21:12.757Z,14.90
2022-08-08T04:24:05.821Z,14.90
2022-08-08T04:26:40.243Z,14.90
2022-08-08T04:29:27.185Z,14.90
2022-08-08T04:32:00.355Z,14.90
2022-08-08T04:34:42.891Z,14.90
2022-08-08T04:37:19.765Z,14.90
2022-08-08T04:40:06.926Z,15.00
2022-08-08T04:42:56.243Z,15.00
2022-08-08T04:45:33.683Z,15.00
2022-08-08T04:48:06.515Z,15.10
2022-08-08T04:50:44.455Z,15.10
2022-08-08T04:54:27.123Z,15.10
2022-08-08T04:56:07.610Z,15.10
2022-08-08T04:58:39.925Z,15.10
2022-08-08T05:01:19.579Z,15.20
2022-08-08T05:04:09.526Z,15.20
2022-08-08T05:06:50.513Z,15.30
2022-08-08T05:09:27.789Z,15.40
2022-08-08T05:12:01.511Z,15.40
2022-08-08T05:14:35.452Z,15.50
2022-08-08T05:17:10.923Z,15.60
2022-08-08T05:20:09.478Z,15.70
2022-08-08T05:22:46.039Z,15.70
2022-08-08T05:25:23.962Z,15.80
2022-08-08T05:27:55.561Z,15.80
2022-08-08T05:30:29.062Z,16.00
2022-08-08T05:33:04.153Z,16.10
2022-08-08T05:35:41.612Z,16.10
2022-08-08T05:38:30.750Z,16.30
2022-08-08T05:41:07.203Z,16.40
2022-08-08T05:44:03.511Z,16.60
2022-08-08T05:46:47.593Z,16.60
2022-08-08T05:49:26.596Z,16.70
2022-08-08T05:52:07.156Z,16.80
2022-08-08T05:54:50.150Z,16.90
2022-08-08T05:58:05.312Z,17.10
2022-08-08T06:00:29.637Z,17.30
2022-08-08T06:03:24.789Z,17.40
2022-08-08T06:06:05.245Z,17.50
2022-08-08T06:08:54.738Z,17.60
2022-08-08T06:11:37.057Z,17.60
2022-08-08T06:14:20.937Z,17.60
2022-08-08T06:17:00.227Z,17.60
2022-08-08T06:19:39.452Z,17.70
2022-08-08T06:22:33.940Z,17.70
2022-08-08T06:25:07.726Z,17.80
2022-08-08T06:27:52.907Z,17.80
2022-08-08T06:30:28.489Z,17.80
2022-08-08T06:33:03.803Z,17.80
2022-08-08T06:36:04.982Z,17.90
2022-08-08T06:38:50.431Z,18.00
2022-08-08T06:41:23.286Z,18.10
2022-08-08T06:44:01.294Z,18.10
2022-08-08T06:46:35.538Z,18.20
2022-08-08T06:49:07.658Z,18.30
2022-08-08T06:51:52.472Z,18.30
2022-08-08T06:54:34.561Z,18.40
2022-08-08T06:57:03.829Z,18.50
2022-08-08T07:00:10.794Z,18.50
2022-08-08T07:02:36.174Z,18.60
2022-08-08T07:05:11.919Z,18.60
2022-08-08T07:08:04.753Z,18.70
2022-08-08T07:10:42.058Z,18.80
2022-08-08T07:13:18.984Z,18.90
2022-08-08T07:16:06.315Z,19.00
2022-08-08T07:18:58.728Z,19.00
2022-08-08T07:21:39.076Z,19.10
2022-08-08T07:24:18.275Z,19.20
2022-08-08T07:26:52.945Z,19.40
2022-08-08T07:29:59.105Z,19.50
2022-08-08T07:32:16.995Z,19.70
2022-08-08T07:34:59.264Z,19.60
2022-08-08T07:37:49.808Z,19.50
2022-08-08T07:40:29.721Z,19.40
2022-08-08T07:43:09.688Z,19.30
2022-08-08T07:46:05.442Z,19.20
2022-08-08T07:48:30.215Z,19.20
2022-08-08T07:51:01.332Z,19.10
2022-08-08T07:54:01.228Z,19.10
2022-08-08T07:56:36.115Z,19.10
2022-08-08T07:59:11.472Z,19.00
2022-08-08T08:02:37.093Z,19.00
2022-08-08T08:04:49.380Z,19.00
2022-08-08T08:07:22.569Z,18.90
2022-08-08T08:09:57.171Z,18.90
2022-08-08T08:12:31.439Z,18.90
2022-08-08T08:15:08.140Z,18.90
2022-08-08T08:17:48.403Z,19.00
2022-08-08T08:20:22.317Z,19.00
2022-08-08T08:22:59.643Z,19.00
2022-08-08T08:25:43.098Z,19.00
2022-08-08T08:28:23.649Z,19.00
2022-08-08T08:30:55.973Z,19.00
2022-08-08T08:33:27.459Z,19.00
2022-08-08T08:36:19.270Z,19.00
2022-08-08T08:38:49.964Z,19.10
2022-08-08T08:41:23.822Z,19.10
2022-08-08T08:44:13.196Z,19.20
2022-08-08T08:46:51.113Z,19.20
2022-08-08T08:49:33.516Z,19.20
2022-08-08T08:52:04.884Z,19.20
2022-08-08T08:54:36.589Z,19.30
2022-08-08T08:57:16.592Z,19.30
2022-08-08T08:59:59.385Z,19.40
2022-08-08T09:02:41.202Z,19.40
2022-08-08T09:05:28.814Z,19.40
2022-08-08T09:08:12.354Z,19.50
2022-08-08T09:10:50.982Z,19.50
2022-08-08T09:13:27.791Z,19.60
2022-08-08T09:16:03.857Z,19.60
2022-08-08T09:18:36.335Z,19.60
2022-08-08T09:22:01.319Z,19.60
2022-08-08T09:24:01.521Z,19.70
2022-08-08T09:26:49.718Z,19.80
2022-08-08T09:29:25.700Z,19.90
2022-08-08T09:31:58.450Z,20.00
2022-08-08T09:34:37.736Z,20.00
2022-08-08T09:37:57.028Z,20.00
2022-08-08T09:40:10.594Z,20.00
2022-08-08T09:42:51.645Z,19.90
2022-08-08T09:45:55.106Z,20.00
2022-08-08T09:48:22.792Z,20.10
2022-08-08T09:51:04.706Z,20.20
2022-08-08T09:53:59.705Z,20.20
2022-08-08T09:56:44.527Z,20.30
2022-08-08T09:59:50.158Z,20.20
2022-08-08T10:02:23.434Z,20.10
2022-08-08T10:04:53.395Z,20.40
2022-08-08T10:07:23.675Z,20.50
2022-08-08T10:09:59.499Z,20.50
2022-08-08T10:12:38.693Z,20.40
2022-08-08T10:15:25.262Z,20.50
2022-08-08T10:18:10.086Z,20.60
2022-08-08T10:20:51.228Z,20.60
2022-08-08T10:23:50.845Z,20.70
2022-08-08T10:26:58.777Z,20.70
2022-08-08T10:29:56.803Z,20.70
2022-08-08T10:32:37.380Z,20.70
2022-08-08T10:35:11.624Z,20.80
2022-08-08T10:37:43.622Z,20.90
2022-08-08T10:40:21.612Z,20.90
2022-08-08T10:42:55.716Z,21.00
2022-08-08T10:45:26.402Z,21.00
2022-08-08T10:47:59.756Z,21.00
2022-08-08T10:50:36.211Z,20.90
2022-08-08T10:53:11.719Z,20.90
2022-08-08T10:55:46.485Z,20.90
2022-08-08T10:58:16.172Z,20.90
2022-08-08T11:01:04.926Z,20.90
2022-08-08T11:04:00.887Z,21.00
2022-08-08T11:06:34.628Z,21.00
2022-08-08T11:09:15.262Z,21.10
2022-08-08T11:12:04.598Z,21.20
2022-08-08T11:14:50.917Z,21.30
2022-08-08T11:18:00.422Z,21.20
2022-08-08T11:20:17.773Z,21.30
2022-08-08T11:22:57.620Z,21.20
2022-08-08T11:25:52.190Z,21.20
2022-08-08T11:28:29.394Z,21.10
2022-08-08T11:31:03.911Z,21.20
2022-08-08T11:33:52.868Z,21.20
2022-08-08T11:36:28.948Z,21.30
2022-08-08T11:39:00.710Z,21.20
2022-08-08T11:41:33.685Z,21.30
2022-08-08T11:44:06.450Z,21.30
2022-08-08T11:46:38.262Z,21.40
2022-08-08T11:49:14.234Z,21.40
2022-08-08T11:51:53.772Z,21.50
2022-08-08T11:54:37.911Z,21.40
2022-08-08T11:57:13.893Z,21.40
2022-08-08T12:00:01.240Z,21.50
2022-08-08T12:02:46.215Z,21.40
2022-08-08T12:05:22.664Z,21.30
2022-08-08T12:07:58.658Z,21.20
2022-08-08T12:10:28.964Z,21.10
2022-08-08T12:13:05.597Z,21.10
2022-08-08T12:15:49.226Z,21.20
2022-08-08T12:18:25.280Z,21.20
2022-08-08T12:20:56.451Z,21.20
2022-08-08T12:23:58.178Z,21.20
2022-08-08T12:26:41.591Z,21.40
2022-08-08T12:29:25.726Z,21.40
2022-08-08T12:32:13.594Z,21.40
2022-08-08T12:34:52.881Z,21.40
2022-08-08T12:37:40.080Z,21.50
2022-08-08T12:40:22.712Z,21.50
2022-08-08T12:42:59.060Z,21.60
2022-08-08T12:45:58.658Z,21.60
2022-08-08T12:48:38.219Z,21.60
2022-08-08T12:51:11.384Z,21.60
2022-08-08T12:54:24.048Z,21.70
2022-08-08T12:56:53.619Z,21.80
2022-08-08T12:59:36.281Z,21.80
2022-08-08T13:02:28.384Z,21.80
2022-08-08T13:05:06.017Z,21.90
2022-08-08T13:08:02.858Z,21.90
2022-08-08T13:10:55.364Z,22.00
2022-08-08T13:13:37.845Z,21.90
2022-08-08T13:16:29.999Z,21.80
2022-08-08T13:19:06.574Z,21.80
2022-08-08T13:21:53.515Z,21.90
2022-08-08T13:24:40.940Z,22.00
2022-08-08T13:27:12.453Z,21.90
2022-08-08T13:29:51.658Z,22.00
2022-08-08T13:32:23.518Z,22.10
2022-08-08T13:34:55.096Z,22.30
2022-08-08T13:37:52.275Z,22.20
2022-08-08T13:40:17.756Z,22.20
2022-08-08T13:42:54.934Z,22.10
2022-08-08T13:45:24.269Z,22.10
2022-08-08T13:47:58.045Z,22.00
2022-08-08T13:50:37.318Z,21.90
2022-08-08T13:53:24.323Z,21.80
2022-08-08T13:56:02.768Z,21.80
2022-08-08T13:58:31.620Z,21.90
2022-08-08T14:01:13.636Z,22.00
2022-08-08T14:03:55.225Z,22.00
2022-08-08T14:06:34.178Z,21.90
2022-08-08T14:09:25.467Z,21.90
2022-08-08T14:11:59.485Z,21.90
2022-08-08T14:14:39.561Z,21.80
2022-08-08T14:17:11.796Z,21.90
2022-08-08T14:19:57.857Z,21.80
2022-08-08T14:22:38.250Z,21.80
2022-08-08T14:25:15.453Z,21.90
2022-08-08T14:27:59.504Z,22.00
2022-08-08T14:30:35.410Z,22.10
2022-08-08T14:33:12.688Z,22.20
2022-08-08T14:35:43.115Z,22.20
2022-08-08T14:38:51.947Z,22.20
2022-08-08T14:41:11.311Z,22.20
2022-08-08T14:44:09.925Z,22.10
2022-08-08T14:46:35.172Z,22.10
2022-08-08T14:49:20.685Z,22.00
2022-08-08T14:52:08.502Z,22.00
2022-08-08T14:54:47.617Z,21.80
2022-08-08T14:57:18.292Z,21.80
2022-08-08T14:59:56.241Z,21.70
2022-08-08T15:02:30.726Z,21.80
2022-08-08T15:05:10.739Z,21.80
2022-08-08T15:07:40.490Z,21.80
2022-08-08T15:10:11.606Z,21.70
2022-08-08T15:12:45.199Z,21.70
2022-08-08T15:15:18.809Z,21.70
2022-08-08T15:18:02.673Z,21.70
2022-08-08T15:20:30.946Z,21.70
2022-08-08T15:22:59.616Z,21.60
2022-08-08T15:25:33.077Z,21.60
2022-08-08T15:28:32.834Z,21.70
2022-08-08T15:30:50.958Z,21.70
2022-08-08T15:33:35.079Z,21.70
2022-08-08T15:36:08.607Z,21.70
2022-08-08T15:38:40.736Z,21.80
2022-08-08T15:41:24.605Z,21.80
2022-08-08T15:44:01.273Z,21.80
2022-08-08T15:46:34.762Z,21.70
2022-08-08T15:49:04.061Z,21.70
2022-08-08T15:51:33.689Z,21.60
2022-08-08T15:54:04.130Z,21.60
2022-08-08T15:56:32.112Z,21.50
2022-08-08T15:59:02.920Z,21.40
2022-08-08T16:01:40.469Z,21.50
2022-08-08T16:04:19.460Z,21.50
2022-08-08T16:06:49.239Z,21.50
2022-08-08T16:13:08.884Z,21.60
2022-08-08T16:13:12.125Z,21.60
2022-08-08T16:14:54.872Z,21.60
2022-08-08T16:17:57.522Z,21.60
2022-08-08T16:20:13.569Z,21.60
2022-08-08T16:22:42.190Z,21.50
2022-08-08T16:25:17.199Z,21.60
2022-08-08T16:27:57.853Z,21.50
2022-08-08T16:30:36.285Z,21.40
2022-08-08T16:33:04.694Z,21.40
2022-08-08T16:35:33.887Z,21.40
2022-08-08T16:38:01.912Z,21.40
2022-08-08T16:40:31.662Z,21.40
2022-08-08T16:42:59.648Z,21.30
2022-08-08T16:46:42.867Z,21.30
2022-08-08T16:48:16.977Z,21.30
2022-08-08T16:50:46.375Z,21.20
2022-08-08T16:55:04.698Z,21.20
2022-08-08T16:56:03.622Z,21.20
2022-08-08T16:58:37.484Z,21.20
2022-08-08T17:01:15.590Z,21.20
2022-08-08T17:04:00.590Z,21.20
2022-08-08T17:06:43.233Z,21.20
2022-08-08T17:09:15.471Z,21.20
2022-08-08T17:11:48.985Z,21.20
2022-08-08T17:14:33.829Z,21.10
2022-08-08T17:17:05.437Z,21.10
2022-08-08T17:19:40.823Z,21.10
2022-08-08T17:22:12.346Z,21.00
2022-08-08T17:24:43.688Z,21.10
2022-08-08T17:27:28.970Z,21.00
2022-08-08T17:30:00.362Z,21.00
2022-08-08T17:32:34.359Z,21.00
2022-08-08T17:35:53.706Z,21.00
2022-08-08T17:38:09.358Z,20.90
2022-08-08T17:40:42.839Z,20.90
2022-08-08T17:43:16.999Z,20.80
2022-08-08T17:45:47.702Z,20.80
2022-08-08T17:48:30.797Z,20.80
2022-08-08T17:51:01.046Z,20.80
2022-08-08T17:53:42.983Z,20.80
2022-08-08T17:56:12.256Z,20.80
2022-08-08T17:58:46.576Z,20.80
2022-08-08T18:01:43.560Z,20.70
2022-08-08T18:04:19.752Z,20.70
2022-08-08T18:06:48.593Z,20.70
2022-08-08T18:09:18.833Z,20.70
2022-08-08T18:11:51.174Z,20.70
2022-08-08T18:14:22.343Z,20.70
2022-08-08T18:16:54.508Z,20.70
2022-08-08T18:19:24.623Z,20.60
2022-08-08T18:22:01.377Z,20.60
2022-08-08T18:24:31.643Z,20.50
2022-08-08T18:27:06.193Z,20.50
2022-08-08T18:29:46.130Z,20.40
2022-08-08T18:32:17.675Z,20.40
2022-08-08T18:34:49.822Z,20.30
2022-08-08T18:37:34.828Z,20.30
2022-08-08T18:40:03.722Z,20.30
2022-08-08T18:42:33.245Z,20.30
2022-08-08T18:45:09.372Z,20.30
2022-08-08T18:47:50.182Z,20.30
2022-08-08T18:50:19.982Z,20.20
2022-08-08T18:52:52.657Z,20.10
2022-08-08T18:55:22.980Z,20.10
2022-08-08T18:57:59.061Z,20.00
2022-08-08T19:00:27.982Z,20.00
2022-08-08T19:03:04.213Z,19.90
2022-08-08T19:05:45.358Z,19.90
2022-08-08T19:08:25.339Z,19.90
2022-08-08T19:10:58.382Z,19.80
2022-08-08T19:13:53.891Z,19.80
2022-08-08T19:16:19.480Z,19.70
2022-08-08T19:18:53.237Z,19.70
2022-08-08T19:21:33.643Z,19.70
2022-08-08T19:24:38.719Z,19.60
2022-08-08T19:27:08.870Z,19.60
2022-08-08T19:29:45.725Z,19.60
2022-08-08T19:32:19.507Z,19.60
2022-08-08T19:34:51.607Z,19.50
2022-08-08T19:37:42.180Z,19.50
2022-08-08T19:40:14.568Z,19.50
2022-08-08T19:42:48.351Z,19.40
2022-08-08T19:45:59.499Z,19.40
2022-08-08T19:48:28.287Z,19.40
2022-08-08T19:50:55.135Z,19.30
2022-08-08T19:53:51.379Z,19.30
2022-08-08T19:56:25.966Z,19.30
2022-08-08T19:59:08.170Z,19.30
2022-08-08T20:02:01.843Z,19.30
2022-08-08T20:04:27.584Z,19.30
2022-08-08T20:07:05.208Z,19.20
2022-08-08T20:09:56.309Z,19.20
2022-08-08T20:12:32.695Z,19.20
2022-08-08T20:15:14.906Z,19.20
2022-08-08T20:17:49.330Z,19.20
2022-08-08T20:20:20.594Z,19.20
2022-08-08T20:22:56.258Z,19.20
2022-08-08T20:25:31.314Z,19.10
2022-08-08T20:28:05.707Z,19.10
2022-08-08T20:30:53.469Z,19.10
2022-08-08T20:35:58.108Z,19.10
2022-08-08T20:38:32.108Z,19.00
2022-08-08T20:41:05.821Z,18.90
2022-08-08T20:43:47.985Z,18.90
2022-08-08T20:46:25.691Z,18.90
2022-08-08T20:48:58.361Z,18.80
2022-08-08T20:51:33.022Z,18.80
2022-08-08T20:54:03.569Z,18.80
2022-08-08T20:57:17.480Z,18.70
2022-08-08T20:59:32.635Z,18.70
2022-08-08T21:02:12.529Z,18.70
2022-08-08T21:04:43.706Z,18.70
2022-08-08T21:07:47.411Z,18.70
2022-08-08T21:10:12.909Z,18.70
2022-08-08T21:12:48.468Z,18.70
2022-08-08T21:16:05.618Z,18.70
2022-08-08T21:18:09.625Z,18.70
2022-08-08T21:20:40.208Z,18.70
2022-08-08T21:23:13.086Z,18.60
2022-08-08T21:25:53.414Z,18.60
2022-08-08T21:28:35.746Z,18.60
2022-08-08T21:31:21.772Z,18.60
2022-08-08T21:33:52.086Z,18.50
2022-08-08T21:36:28.555Z,18.50
2022-08-08T21:38:57.601Z,18.50
2022-08-08T21:41:38.671Z,18.40
2022-08-08T21:44:15.884Z,18.40
2022-08-08T21:48:06.369Z,18.40
2022-08-08T21:49:35.214Z,18.40
2022-08-08T21:54:35.370Z,18.30
2022-08-08T21:54:54.127Z,18.30
2022-08-08T21:57:42.851Z,18.30
2022-08-08T22:00:25.881Z,18.20
2022-08-08T22:02:55.011Z,18.20
2022-08-08T22:05:23.870Z,18.20
2022-08-08T22:07:52.613Z,18.10
2022-08-08T22:10:32.568Z,18.10
2022-08-08T22:13:18.838Z,18.10
2022-08-08T22:15:58.583Z,18.10
2022-08-08T22:18:33.128Z,18.10
2022-08-08T22:21:13.887Z,18.10
2022-08-08T22:23:50.940Z,18.10
2022-08-08T22:26:29.463Z,18.00
2022-08-08T22:29:14.318Z,18.00
2022-08-08T22:31:58.763Z,18.00
2022-08-08T22:34:31.934Z,18.00
2022-08-08T22:37:01.390Z,17.90
2022-08-08T22:39:45.780Z,17.90
2022-08-08T22:42:24.269Z,17.90
2022-08-08T22:45:00.883Z,17.80
2022-08-08T22:47:37.647Z,17.80
2022-08-08T22:50:21.654Z,17.70
2022-08-08T22:53:22.487Z,17.70
2022-08-08T22:55:58.861Z,17.70
2022-08-08T22:58:33.939Z,17.70
2022-08-08T23:01:26.659Z,17.60
2022-08-08T23:03:57.969Z,17.70
2022-08-08T23:06:26.951Z,17.60
2022-08-08T23:09:00.159Z,17.60
2022-08-08T23:12:18.328Z,17.60
2022-08-08T23:14:21.103Z,17.60
2022-08-08T23:16:59.126Z,17.50
2022-08-08T23:19:32.515Z,17.50
2022-08-08T23:22:04.410Z,17.60
2022-08-08T23:24:36.320Z,17.50
2022-08-08T23:27:06.584Z,17.50
2022-08-08T23:29:35.314Z,17.50
2022-08-08T23:32:05.462Z,17.50
2022-08-08T23:34:35.821Z,17.50
2022-08-08T23:37:05.493Z,17.50
2022-08-08T23:39:41.787Z,17.40
2022-08-08T23:42:21.270Z,17.40
2022-08-08T23:44:51.957Z,17.40
2022-08-08T23:49:04.477Z,17.40
2022-08-08T23:50:30.098Z,17.40
2022-08-08T23:53:03.448Z,17.40
2022-08-08T23:55:38.288Z,17.30
2022-08-08T23:58:37.834Z,17.30
